createdAt,value
2019-03-25T00:00:48.709Z,1014.98
2019-03-25T00:01:48.717Z,1014.99
2019-03-25T00:03:41.618Z,1014.96
2019-03-25T00:04:41.621Z,1014.97
2019-03-25T00:06:34.521Z,1014.97
2019-03-25T00:07:34.523Z,1014.93
2019-03-25T00:09:27.418Z,1014.87
2019-03-25T00:10:27.474Z,1014.85
2019-03-25T00:12:20.330Z,1014.82
2019-03-25T00:13:20.331Z,1014.86
2019-03-25T00:15:13.227Z,1014.83
2019-03-25T00:16:13.236Z,1014.78
2019-03-25T00:18:06.142Z,1014.74
2019-03-25T00:19:06.145Z,1014.74
2019-03-25T00:20:59.033Z,1014.71
2019-03-25T00:21:59.041Z,1014.65
2019-03-25T00:23:51.946Z,1014.70
2019-03-25T00:24:51.949Z,1014.68
2019-03-25T00:26:44.860Z,1014.66
2019-03-25T00:27:44.854Z,1014.65
2019-03-25T00:29:37.751Z,1014.60
2019-03-25T00:30:37.759Z,1014.59
2019-03-25T00:32:30.662Z,1014.54
2019-03-25T00:33:30.662Z,1014.44
2019-03-25T00:35:23.558Z,1014.41
2019-03-25T00:36:23.565Z,1014.39
2019-03-25T00:38:16.471Z,1014.34
2019-03-25T00:39:16.473Z,1014.30
2019-03-25T00:41:09.386Z,1014.27
2019-03-25T00:42:09.380Z,1014.21
2019-03-25T00:44:02.272Z,1014.18
2019-03-25T00:45:02.281Z,1014.17
2019-03-25T00:46:55.195Z,1014.09
2019-03-25T00:47:55.199Z,1014.05
2019-03-25T00:49:48.094Z,1014.05
2019-03-25T00:50:48.106Z,1014.03
2019-03-25T00:52:41.005Z,1013.98
2019-03-25T00:53:41.007Z,1013.94
2019-03-25T00:55:33.907Z,1013.84
2019-03-25T00:56:33.914Z,1013.85
2019-03-25T00:58:26.817Z,1013.80
2019-03-25T00:59:26.820Z,1013.81
2019-03-25T01:01:19.725Z,1013.75
2019-03-25T01:02:19.726Z,1013.72
2019-03-25T01:04:12.622Z,1013.68
2019-03-25T01:05:12.634Z,1013.63
2019-03-25T01:07:05.553Z,1013.60
2019-03-25T01:08:05.539Z,1013.61
2019-03-25T01:09:58.436Z,1013.59
2019-03-25T01:10:58.443Z,1013.55
2019-03-25T01:12:51.348Z,1013.51
2019-03-25T01:13:51.352Z,1013.46
2019-03-25T01:15:44.245Z,1013.41
2019-03-25T01:16:44.253Z,1013.41
2019-03-25T01:18:37.159Z,1013.38
2019-03-25T01:19:37.197Z,1013.38
2019-03-25T01:21:30.066Z,1013.30
2019-03-25T01:22:30.081Z,1013.25
2019-03-25T01:24:22.989Z,1013.30
2019-03-25T01:25:22.981Z,1013.28
2019-03-25T01:27:16.376Z,1013.22
2019-03-25T01:28:16.378Z,1013.21
2019-03-25T01:30:09.285Z,1013.17
2019-03-25T01:31:09.288Z,1013.21
2019-03-25T01:33:02.189Z,1013.13
2019-03-25T01:34:02.192Z,1013.10
2019-03-25T01:35:55.088Z,1013.07
2019-03-25T01:36:55.099Z,1013.02
2019-03-25T01:38:48.002Z,1012.95
2019-03-25T01:39:48.004Z,1012.97
2019-03-25T01:41:41.908Z,1012.87
2019-03-25T01:42:41.916Z,1012.86
2019-03-25T01:44:34.808Z,1012.88
2019-03-25T01:45:34.818Z,1012.77
2019-03-25T01:47:27.726Z,1012.75
2019-03-25T01:48:27.723Z,1012.74
2019-03-25T01:50:20.622Z,1012.79
2019-03-25T01:51:20.630Z,1012.67
2019-03-25T01:53:13.541Z,1012.64
2019-03-25T01:54:13.539Z,1012.65
2019-03-25T01:56:06.439Z,1012.67
2019-03-25T01:57:06.448Z,1012.54
2019-03-25T01:58:59.353Z,1012.53
2019-03-25T01:59:59.355Z,1012.52
2019-03-25T02:01:52.261Z,1012.44
2019-03-25T02:02:52.265Z,1012.46
2019-03-25T02:04:45.160Z,1012.44
2019-03-25T02:05:45.168Z,1012.40
2019-03-25T02:07:38.077Z,1012.43
2019-03-25T02:08:38.077Z,1012.30
2019-03-25T02:10:30.973Z,1012.26
2019-03-25T02:11:31.038Z,1012.27
2019-03-25T02:13:23.887Z,1012.30
2019-03-25T02:14:23.889Z,1012.32
2019-03-25T02:16:16.787Z,1012.21
2019-03-25T02:17:16.793Z,1012.21
2019-03-25T02:19:09.696Z,1012.15
2019-03-25T02:20:09.698Z,1012.12
2019-03-25T02:22:02.601Z,1012.04
2019-03-25T02:23:02.769Z,1012.12
2019-03-25T02:24:55.500Z,1011.99
2019-03-25T02:25:55.509Z,1012.11
2019-03-25T02:27:48.412Z,1012.12
2019-03-25T02:28:48.417Z,1012.09
2019-03-25T02:30:41.310Z,1012.06
2019-03-25T02:31:41.326Z,1011.98
2019-03-25T02:33:34.226Z,1011.97
2019-03-25T02:34:34.225Z,1011.92
2019-03-25T02:36:27.201Z,1011.89
2019-03-25T02:37:27.141Z,1011.84
2019-03-25T02:39:20.034Z,1011.81
2019-03-25T02:40:20.034Z,1011.80
2019-03-25T02:42:12.941Z,1011.81
2019-03-25T02:43:12.949Z,1011.86
2019-03-25T02:45:05.895Z,1011.80
2019-03-25T02:46:05.847Z,1011.78
2019-03-25T02:47:58.756Z,1011.77
2019-03-25T02:48:58.765Z,1011.70
2019-03-25T02:50:51.654Z,1011.65
2019-03-25T02:51:51.661Z,1011.74
2019-03-25T02:53:44.567Z,1011.67
2019-03-25T02:54:44.575Z,1011.66
2019-03-25T02:56:37.472Z,1011.67
2019-03-25T02:57:37.478Z,1011.63
2019-03-25T02:59:30.367Z,1011.62
2019-03-25T03:00:30.388Z,1011.54
2019-03-25T03:02:23.284Z,1011.58
2019-03-25T03:03:23.286Z,1011.54
2019-03-25T03:05:16.185Z,1011.58
2019-03-25T03:06:16.194Z,1011.59
2019-03-25T03:08:09.096Z,1011.62
2019-03-25T03:09:09.097Z,1011.63
2019-03-25T03:11:01.993Z,1011.58
2019-03-25T03:12:02.006Z,1011.59
2019-03-25T03:13:54.913Z,1011.64
2019-03-25T03:14:54.913Z,1011.68
2019-03-25T03:16:48.309Z,1011.61
2019-03-25T03:17:48.314Z,1011.60
2019-03-25T03:19:41.215Z,1011.69
2019-03-25T03:20:41.216Z,1011.69
2019-03-25T03:22:34.120Z,1011.78
2019-03-25T03:23:34.124Z,1011.72
2019-03-25T03:25:27.022Z,1011.79
2019-03-25T03:26:27.042Z,1011.90
2019-03-25T03:28:19.933Z,1012.05
2019-03-25T03:29:19.934Z,1012.17
2019-03-25T03:31:12.842Z,1012.07
2019-03-25T03:32:12.877Z,1012.07
2019-03-25T03:34:05.761Z,1012.12
2019-03-25T03:35:05.747Z,1012.12
2019-03-25T03:36:58.655Z,1012.10
2019-03-25T03:37:58.656Z,1012.24
2019-03-25T03:39:52.043Z,1012.16
2019-03-25T03:40:52.058Z,1012.02
2019-03-25T03:42:44.958Z,1011.91
2019-03-25T03:43:44.957Z,1011.76
2019-03-25T03:45:37.853Z,1011.85
2019-03-25T03:46:37.866Z,1011.91
2019-03-25T03:48:30.776Z,1011.98
2019-03-25T03:49:30.769Z,1011.94
2019-03-25T03:51:23.665Z,1011.87
2019-03-25T03:52:23.674Z,1011.92
2019-03-25T03:54:16.578Z,1011.86
2019-03-25T03:55:16.580Z,1011.89
2019-03-25T03:57:09.482Z,1011.89
2019-03-25T03:58:09.483Z,1011.88
2019-03-25T04:00:02.380Z,1011.89
2019-03-25T04:01:02.396Z,1011.89
2019-03-25T04:02:55.288Z,1011.91
2019-03-25T04:03:55.287Z,1011.90
2019-03-25T04:05:48.183Z,1011.95
2019-03-25T04:06:48.194Z,1012.00
2019-03-25T04:08:41.094Z,1011.94
2019-03-25T04:09:41.093Z,1011.95
2019-03-25T04:11:33.990Z,1012.01
2019-03-25T04:12:33.997Z,1012.01
2019-03-25T04:14:26.901Z,1012.03
2019-03-25T04:15:26.909Z,1012.00
2019-03-25T04:17:19.806Z,1012.05
2019-03-25T04:18:19.806Z,1012.07
2019-03-25T04:20:13.196Z,1012.02
2019-03-25T04:21:13.204Z,1012.02
2019-03-25T04:23:06.110Z,1011.95
2019-03-25T04:24:06.107Z,1011.99
2019-03-25T04:25:59.002Z,1011.99
2019-03-25T04:26:59.010Z,1012.00
2019-03-25T04:28:51.914Z,1011.96
2019-03-25T04:29:51.914Z,1011.94
2019-03-25T04:31:44.816Z,1011.98
2019-03-25T04:32:44.818Z,1012.02
2019-03-25T04:34:37.721Z,1011.99
2019-03-25T04:35:37.741Z,1012.02
2019-03-25T04:37:30.624Z,1012.06
2019-03-25T04:38:30.627Z,1012.02
2019-03-25T04:40:23.516Z,1012.01
2019-03-25T04:41:23.525Z,1012.00
2019-03-25T04:43:16.425Z,1012.05
2019-03-25T04:44:16.426Z,1012.10
2019-03-25T04:46:09.319Z,1012.00
2019-03-25T04:47:09.329Z,1011.97
2019-03-25T04:49:02.240Z,1012.02
2019-03-25T04:50:02.234Z,1012.06
2019-03-25T04:51:55.141Z,1012.09
2019-03-25T04:52:55.131Z,1012.09
2019-03-25T04:54:48.028Z,1012.09
2019-03-25T04:55:48.037Z,1012.10
2019-03-25T04:57:40.941Z,1012.08
2019-03-25T04:58:40.940Z,1012.06
2019-03-25T05:00:33.836Z,1012.09
2019-03-25T05:01:33.844Z,1012.07
2019-03-25T05:03:27.738Z,1012.10
2019-03-25T05:04:27.739Z,1012.15
2019-03-25T05:06:20.635Z,1012.13
2019-03-25T05:07:20.641Z,1012.07
2019-03-25T05:09:13.540Z,1012.05
2019-03-25T05:10:13.541Z,1012.05
2019-03-25T05:12:06.442Z,1012.07
2019-03-25T05:13:06.444Z,1012.04
2019-03-25T05:14:59.834Z,1012.04
2019-03-25T05:15:59.841Z,1012.02
2019-03-25T05:17:52.742Z,1011.99
2019-03-25T05:18:52.745Z,1011.99
2019-03-25T05:20:45.636Z,1012.02
2019-03-25T05:21:45.644Z,1012.03
2019-03-25T05:23:39.038Z,1011.98
2019-03-25T05:24:39.046Z,1011.99
2019-03-25T05:26:32.928Z,1012.01
2019-03-25T05:27:32.942Z,1012.04
2019-03-25T05:29:25.846Z,1011.94
2019-03-25T05:30:25.841Z,1011.94
2019-03-25T05:32:18.744Z,1011.95
2019-03-25T05:33:18.744Z,1011.92
2019-03-25T05:35:12.153Z,1011.95
2019-03-25T05:36:12.166Z,1011.91
2019-03-25T05:38:05.555Z,1011.84
2019-03-25T05:39:05.560Z,1011.89
2019-03-25T05:40:58.453Z,1011.88
2019-03-25T05:41:58.461Z,1011.83
2019-03-25T05:43:51.366Z,1011.85
2019-03-25T05:44:51.369Z,1011.77
2019-03-25T05:46:44.263Z,1011.90
2019-03-25T05:47:44.271Z,1011.85
2019-03-25T05:49:37.175Z,1011.84
2019-03-25T05:50:37.178Z,1011.83
2019-03-25T05:52:30.081Z,1011.89
2019-03-25T05:53:30.082Z,1011.82
2019-03-25T05:55:22.975Z,1011.74
2019-03-25T05:56:22.982Z,1011.71
2019-03-25T05:58:15.884Z,1011.75
2019-03-25T05:59:15.885Z,1011.75
2019-03-25T06:01:08.787Z,1011.74
2019-03-25T06:02:08.792Z,1011.74
2019-03-25T06:04:01.694Z,1011.73
2019-03-25T06:05:01.716Z,1011.76
2019-03-25T06:06:54.590Z,1011.73
2019-03-25T06:07:54.594Z,1011.76
2019-03-25T06:09:47.502Z,1011.78
2019-03-25T06:10:47.500Z,1011.84
2019-03-25T06:12:42.428Z,1011.94
2019-03-25T06:13:40.405Z,1011.92
2019-03-25T06:15:33.797Z,1011.90
2019-03-25T06:16:33.805Z,1011.91
2019-03-25T06:18:26.711Z,1011.91
2019-03-25T06:19:26.709Z,1011.86
2019-03-25T06:21:19.607Z,1011.89
2019-03-25T06:22:19.615Z,1011.80
2019-03-25T06:24:12.519Z,1011.89
2019-03-25T06:25:12.520Z,1011.86
2019-03-25T06:27:13.714Z,1011.83
2019-03-25T06:28:05.427Z,1011.81
2019-03-25T06:29:58.323Z,1011.85
2019-03-25T06:30:58.334Z,1011.92
2019-03-25T06:32:51.236Z,1011.95
2019-03-25T06:33:51.239Z,1011.92
2019-03-25T06:35:44.137Z,1011.91
2019-03-25T06:36:44.148Z,1011.88
2019-03-25T06:38:37.048Z,1011.88
2019-03-25T06:39:37.051Z,1011.86
2019-03-25T06:41:29.950Z,1011.87
2019-03-25T06:42:30.069Z,1011.87
2019-03-25T06:44:22.865Z,1011.79
2019-03-25T06:45:22.868Z,1011.77
2019-03-25T06:47:15.773Z,1011.79
2019-03-25T06:48:15.779Z,1011.75
2019-03-25T06:50:08.673Z,1011.76
2019-03-25T06:51:08.701Z,1011.77
2019-03-25T06:53:01.586Z,1011.74
2019-03-25T06:54:01.590Z,1011.70
2019-03-25T06:55:54.489Z,1011.73
2019-03-25T06:56:54.504Z,1011.77
2019-03-25T06:58:47.402Z,1011.85
2019-03-25T06:59:47.405Z,1011.82
2019-03-25T07:01:40.301Z,1011.88
2019-03-25T07:02:40.312Z,1011.88
2019-03-25T07:04:33.218Z,1011.85
2019-03-25T07:05:33.224Z,1011.83
2019-03-25T07:07:26.126Z,1011.86
2019-03-25T07:08:26.129Z,1011.88
2019-03-25T07:10:19.522Z,1011.78
2019-03-25T07:11:19.531Z,1011.80
2019-03-25T07:13:12.440Z,1011.83
2019-03-25T07:14:12.446Z,1011.84
2019-03-25T07:16:05.353Z,1011.86
2019-03-25T07:17:05.361Z,1011.84
2019-03-25T07:18:58.267Z,1011.77
2019-03-25T07:19:58.270Z,1011.69
2019-03-25T07:21:51.169Z,1011.75
2019-03-25T07:22:51.176Z,1011.73
2019-03-25T07:24:44.104Z,1011.80
2019-03-25T07:25:44.109Z,1011.69
2019-03-25T07:27:37.455Z,1011.65
2019-03-25T07:28:38.708Z,1011.74
2019-03-25T07:30:29.916Z,1011.74
2019-03-25T07:31:29.929Z,1011.71
2019-03-25T07:33:22.835Z,1011.65
2019-03-25T07:34:22.839Z,1011.69
2019-03-25T07:36:16.080Z,1011.63
2019-03-25T07:37:16.093Z,1011.67
2019-03-25T07:39:09.995Z,1011.58
2019-03-25T07:40:09.999Z,1011.56
2019-03-25T07:42:03.219Z,1011.58
2019-03-25T07:43:02.913Z,1011.61
2019-03-25T07:44:55.816Z,1011.55
2019-03-25T07:45:55.821Z,1011.54
2019-03-25T07:47:48.731Z,1011.46
2019-03-25T07:48:48.734Z,1011.46
2019-03-25T07:50:41.638Z,1011.49
2019-03-25T07:51:41.642Z,1011.55
2019-03-25T07:53:34.547Z,1011.60
2019-03-25T07:54:34.551Z,1011.57
2019-03-25T07:56:27.459Z,1011.54
2019-03-25T07:57:27.460Z,1011.56
2019-03-25T07:59:20.388Z,1011.47
2019-03-25T08:00:20.386Z,1011.58
2019-03-25T08:02:15.264Z,1011.61
2019-03-25T08:03:13.275Z,1011.69
2019-03-25T08:05:06.187Z,1011.71
2019-03-25T08:06:06.194Z,1011.69
2019-03-25T08:07:59.117Z,1011.80
2019-03-25T08:09:03.658Z,1011.81
2019-03-25T08:10:51.991Z,1011.78
2019-03-25T08:11:52.036Z,1011.78
2019-03-25T08:13:44.913Z,1011.79
2019-03-25T08:14:44.919Z,1011.89
2019-03-25T08:16:37.804Z,1011.90
2019-03-25T08:17:37.811Z,1011.74
2019-03-25T08:19:30.716Z,1011.81
2019-03-25T08:20:30.718Z,1011.80
2019-03-25T08:22:23.625Z,1011.84
2019-03-25T08:23:23.627Z,1011.86
2019-03-25T08:25:16.520Z,1011.81
2019-03-25T08:26:16.534Z,1011.86
2019-03-25T08:28:09.434Z,1011.88
2019-03-25T08:29:09.438Z,1011.92
2019-03-25T08:31:02.336Z,1012.00
2019-03-25T08:32:02.344Z,1011.93
2019-03-25T08:33:55.249Z,1011.97
2019-03-25T08:34:55.251Z,1011.95
2019-03-25T08:36:48.156Z,1011.89
2019-03-25T08:37:48.163Z,1011.99
2019-03-25T08:39:41.069Z,1011.94
2019-03-25T08:40:41.069Z,1011.87
2019-03-25T08:42:33.989Z,1011.91
2019-03-25T08:43:33.994Z,1011.92
2019-03-25T08:45:26.891Z,1011.91
2019-03-25T08:46:26.903Z,1011.96
2019-03-25T08:48:19.810Z,1011.97
2019-03-25T08:49:19.815Z,1011.90
2019-03-25T08:51:12.715Z,1011.94
2019-03-25T08:52:12.724Z,1011.96
2019-03-25T08:54:05.634Z,1011.91
2019-03-25T08:55:05.640Z,1011.95
2019-03-25T08:56:58.538Z,1011.95
2019-03-25T08:57:58.547Z,1011.97
2019-03-25T08:59:51.457Z,1012.01
2019-03-25T09:00:51.459Z,1012.02
2019-03-25T09:02:44.369Z,1011.98
2019-03-25T09:03:44.370Z,1012.02
2019-03-25T09:05:37.274Z,1012.00
2019-03-25T09:06:37.286Z,1012.07
2019-03-25T09:08:30.189Z,1012.03
2019-03-25T09:09:30.194Z,1012.01
2019-03-25T09:11:23.096Z,1012.09
2019-03-25T09:12:23.104Z,1012.11
2019-03-25T09:14:16.347Z,1012.05
2019-03-25T09:15:16.014Z,1012.16
2019-03-25T09:17:08.913Z,1012.27
2019-03-25T09:18:08.924Z,1012.25
2019-03-25T09:20:01.838Z,1012.29
2019-03-25T09:21:01.836Z,1012.30
2019-03-25T09:22:54.741Z,1012.31
2019-03-25T09:23:54.752Z,1012.23
2019-03-25T09:25:47.648Z,1012.24
2019-03-25T09:26:47.660Z,1012.30
2019-03-25T09:28:40.572Z,1012.37
2019-03-25T09:29:40.567Z,1012.48
2019-03-25T09:31:37.080Z,1012.29
2019-03-25T09:32:33.972Z,1012.39
2019-03-25T09:34:26.879Z,1012.47
2019-03-25T09:35:26.884Z,1012.51
2019-03-25T09:37:19.784Z,1012.60
2019-03-25T09:38:19.793Z,1012.65
2019-03-25T09:40:12.698Z,1012.58
2019-03-25T09:41:12.704Z,1012.53
2019-03-25T09:43:05.609Z,1012.52
2019-03-25T09:44:05.612Z,1012.56
2019-03-25T09:45:58.516Z,1012.57
2019-03-25T09:46:58.525Z,1012.51
2019-03-25T09:48:51.432Z,1012.66
2019-03-25T09:49:51.433Z,1012.63
2019-03-25T09:51:44.341Z,1012.60
2019-03-25T09:52:44.344Z,1012.56
2019-03-25T09:54:37.251Z,1012.62
2019-03-25T09:55:37.254Z,1012.55
2019-03-25T09:57:30.650Z,1012.56
2019-03-25T09:58:36.055Z,1012.70
2019-03-25T10:00:23.565Z,1012.78
2019-03-25T10:01:23.569Z,1012.76
2019-03-25T10:03:16.474Z,1012.95
2019-03-25T10:04:16.477Z,1012.80
2019-03-25T10:06:09.377Z,1012.62
2019-03-25T10:07:09.388Z,1012.82
2019-03-25T10:09:02.296Z,1012.77
2019-03-25T10:10:02.300Z,1013.07
2019-03-25T10:11:55.201Z,1012.91
2019-03-25T10:12:56.823Z,1012.86
2019-03-25T10:14:48.119Z,1012.97
2019-03-25T10:15:48.123Z,1013.08
2019-03-25T10:17:41.082Z,1012.96
2019-03-25T10:18:41.089Z,1012.88
2019-03-25T10:20:33.993Z,1012.92
2019-03-25T10:21:33.999Z,1013.01
2019-03-25T10:23:26.903Z,1013.04
2019-03-25T10:24:27.998Z,1013.11
2019-03-25T10:26:19.802Z,1013.11
2019-03-25T10:27:19.813Z,1013.02
2019-03-25T10:29:12.718Z,1013.09
2019-03-25T10:30:12.721Z,1013.17
2019-03-25T10:32:05.630Z,1013.32
2019-03-25T10:33:05.640Z,1013.16
2019-03-25T10:34:58.544Z,1013.18
2019-03-25T10:35:58.547Z,1013.22
2019-03-25T10:37:51.452Z,1013.23
2019-03-25T10:38:51.456Z,1013.30
2019-03-25T10:40:44.353Z,1013.26
2019-03-25T10:41:44.363Z,1013.32
2019-03-25T10:43:37.265Z,1013.20
2019-03-25T10:44:37.269Z,1013.27
2019-03-25T10:46:30.167Z,1013.30
2019-03-25T10:47:30.179Z,1013.25
2019-03-25T10:49:23.084Z,1013.31
2019-03-25T10:50:23.086Z,1013.28
2019-03-25T10:52:15.986Z,1013.35
2019-03-25T10:53:15.996Z,1013.30
2019-03-25T10:55:08.909Z,1013.28
2019-03-25T10:56:08.905Z,1013.29
2019-03-25T10:58:01.811Z,1013.14
2019-03-25T10:59:01.815Z,1013.27
2019-03-25T11:00:54.716Z,1013.26
2019-03-25T11:01:54.727Z,1013.24
2019-03-25T11:03:47.632Z,1013.16
2019-03-25T11:04:47.635Z,1013.27
2019-03-25T11:06:41.030Z,1013.26
2019-03-25T11:09:33.950Z,1013.27
2019-03-25T11:10:33.953Z,1013.50
2019-03-25T11:12:26.853Z,1013.32
2019-03-25T11:13:26.862Z,1013.26
2019-03-25T11:15:19.771Z,1013.28
2019-03-25T11:16:19.770Z,1013.36
2019-03-25T11:18:12.684Z,1013.35
2019-03-25T11:19:12.682Z,1013.48
2019-03-25T11:21:05.588Z,1013.30
2019-03-25T11:22:05.592Z,1013.43
2019-03-25T11:23:58.508Z,1013.37
2019-03-25T11:24:58.510Z,1013.35
2019-03-25T11:26:51.409Z,1013.42
2019-03-25T11:27:54.511Z,1013.40
2019-03-25T11:29:44.326Z,1013.41
2019-03-25T11:30:44.334Z,1013.31
2019-03-25T11:32:37.233Z,1013.40
2019-03-25T11:33:37.242Z,1013.49
2019-03-25T11:35:30.160Z,1013.37
2019-03-25T11:36:30.162Z,1013.39
2019-03-25T11:38:23.069Z,1013.36
2019-03-25T11:39:23.073Z,1013.35
2019-03-25T11:41:15.974Z,1013.31
2019-03-25T11:42:15.986Z,1013.44
2019-03-25T11:44:08.895Z,1013.41
2019-03-25T11:45:08.901Z,1013.36
2019-03-25T11:47:01.805Z,1013.42
2019-03-25T11:48:01.816Z,1013.45
2019-03-25T11:49:54.732Z,1013.39
2019-03-25T11:50:54.731Z,1013.43
2019-03-25T11:52:47.634Z,1013.46
2019-03-25T11:53:47.645Z,1013.59
2019-03-25T11:55:41.047Z,1013.50
2019-03-25T11:56:41.056Z,1013.41
2019-03-25T11:58:33.964Z,1013.33
2019-03-25T11:59:33.969Z,1013.31
2019-03-25T12:01:26.886Z,1013.50
2019-03-25T12:02:26.885Z,1013.53
2019-03-25T12:04:19.850Z,1013.65
2019-03-25T12:05:19.804Z,1013.65
2019-03-25T12:07:12.709Z,1013.59
2019-03-25T12:08:12.721Z,1013.60
2019-03-25T12:10:05.635Z,1013.66
2019-03-25T12:11:05.639Z,1013.70
2019-03-25T12:12:58.540Z,1013.53
2019-03-25T12:13:58.553Z,1013.55
2019-03-25T12:15:51.467Z,1013.63
2019-03-25T12:16:51.473Z,1013.62
2019-03-25T12:18:44.438Z,1013.67
2019-03-25T12:19:44.392Z,1013.65
2019-03-25T12:21:37.294Z,1013.68
2019-03-25T12:22:37.305Z,1013.76
2019-03-25T12:24:30.215Z,1013.59
2019-03-25T12:25:30.226Z,1013.88
2019-03-25T12:27:23.208Z,1013.77
2019-03-25T12:28:23.138Z,1013.83
2019-03-25T12:30:16.051Z,1013.85
2019-03-25T12:31:16.059Z,1013.86
2019-03-25T12:33:08.971Z,1014.00
2019-03-25T12:34:09.000Z,1013.99
2019-03-25T12:36:01.876Z,1013.92
2019-03-25T12:37:01.894Z,1013.85
2019-03-25T12:38:54.801Z,1013.73
2019-03-25T12:39:54.807Z,1013.74
2019-03-25T12:41:47.712Z,1013.70
2019-03-25T12:42:47.724Z,1013.62
2019-03-25T12:44:40.631Z,1013.63
2019-03-25T12:45:40.636Z,1013.62
2019-03-25T12:47:33.541Z,1013.61
2019-03-25T12:48:33.555Z,1013.59
2019-03-25T12:50:26.461Z,1013.63
2019-03-25T12:51:26.468Z,1013.70
2019-03-25T12:53:19.375Z,1013.63
2019-03-25T12:54:19.380Z,1013.64
2019-03-25T12:56:12.283Z,1013.58
2019-03-25T12:57:12.294Z,1013.55
2019-03-25T12:59:05.210Z,1013.56
2019-03-25T13:00:05.211Z,1013.51
2019-03-25T13:01:58.121Z,1013.56
2019-03-25T13:02:58.128Z,1013.55
2019-03-25T13:04:51.040Z,1013.48
2019-03-25T13:05:51.045Z,1013.45
2019-03-25T13:07:43.950Z,1013.55
2019-03-25T13:08:43.962Z,1013.58
2019-03-25T13:10:36.874Z,1013.68
2019-03-25T13:11:36.877Z,1013.70
2019-03-25T13:13:29.787Z,1013.74
2019-03-25T13:14:29.794Z,1013.73
2019-03-25T13:16:22.702Z,1013.81
2019-03-25T13:17:22.705Z,1013.81
2019-03-25T13:19:15.619Z,1013.98
2019-03-25T13:20:15.625Z,1013.98
2019-03-25T13:22:08.527Z,1014.13
2019-03-25T13:23:08.541Z,1014.16
2019-03-25T13:25:01.454Z,1014.30
2019-03-25T13:26:01.457Z,1014.39
2019-03-25T13:27:54.852Z,1014.43
2019-03-25T13:29:02.063Z,1014.59
2019-03-25T13:30:47.773Z,1014.66
2019-03-25T13:31:47.777Z,1014.70
2019-03-25T13:33:40.760Z,1014.60
2019-03-25T13:34:40.692Z,1014.58
2019-03-25T13:36:33.631Z,1014.58
2019-03-25T13:37:33.610Z,1014.67
2019-03-25T13:39:26.515Z,1014.66
2019-03-25T13:40:26.519Z,1014.73
2019-03-25T13:42:19.423Z,1014.75
2019-03-25T13:43:19.431Z,1014.72
2019-03-25T13:45:12.337Z,1014.75
2019-03-25T13:46:12.341Z,1014.80
2019-03-25T13:48:05.240Z,1014.75
2019-03-25T13:49:05.251Z,1014.90
2019-03-25T13:50:58.161Z,1014.67
2019-03-25T13:51:58.163Z,1014.73
2019-03-25T13:53:51.068Z,1014.66
2019-03-25T13:54:51.074Z,1014.57
2019-03-25T13:56:43.972Z,1014.57
2019-03-25T13:57:43.984Z,1014.60
2019-03-25T13:59:36.888Z,1014.59
2019-03-25T14:00:36.897Z,1014.65
2019-03-25T14:02:29.794Z,1014.57
2019-03-25T14:03:29.804Z,1014.57
2019-03-25T14:05:22.709Z,1014.61
2019-03-25T14:06:22.715Z,1014.63
2019-03-25T14:08:16.125Z,1014.68
2019-03-25T14:09:16.129Z,1014.69
2019-03-25T14:11:09.027Z,1014.74
2019-03-25T14:12:09.038Z,1014.77
2019-03-25T14:14:02.089Z,1014.87
2019-03-25T14:15:02.088Z,1014.82
2019-03-25T14:16:54.993Z,1014.78
2019-03-25T14:17:55.005Z,1014.76
2019-03-25T14:19:47.907Z,1014.89
2019-03-25T14:20:47.913Z,1014.94
2019-03-25T14:22:41.306Z,1014.95
2019-03-25T14:23:41.319Z,1014.96
2019-03-25T14:25:34.225Z,1014.90
2019-03-25T14:26:34.225Z,1014.83
2019-03-25T14:28:27.137Z,1014.83
2019-03-25T14:29:27.138Z,1014.89
2019-03-25T14:31:20.574Z,1014.82
2019-03-25T14:32:20.557Z,1014.75
2019-03-25T14:34:14.573Z,1014.72
2019-03-25T14:35:13.463Z,1014.74
2019-03-25T14:37:06.366Z,1014.71
2019-03-25T14:38:06.379Z,1014.71
2019-03-25T14:39:59.282Z,1014.69
2019-03-25T14:40:59.288Z,1014.72
2019-03-25T14:42:52.741Z,1014.80
2019-03-25T14:43:52.203Z,1014.81
2019-03-25T14:45:45.106Z,1014.88
2019-03-25T14:46:45.111Z,1014.85
2019-03-25T14:48:38.017Z,1014.95
2019-03-25T14:49:38.018Z,1015.02
2019-03-25T14:51:30.919Z,1015.01
2019-03-25T14:52:30.975Z,1015.09
2019-03-25T14:54:23.838Z,1015.19
2019-03-25T14:55:23.844Z,1015.14
2019-03-25T14:57:16.755Z,1015.19
2019-03-25T14:58:16.758Z,1015.39
2019-03-25T15:00:09.667Z,1015.22
2019-03-25T15:01:09.675Z,1015.23
2019-03-25T15:03:02.574Z,1015.20
2019-03-25T15:04:02.583Z,1015.24
2019-03-25T15:05:56.039Z,1015.76
2019-03-25T15:06:55.497Z,1015.33
2019-03-25T15:08:48.436Z,1015.30
2019-03-25T15:09:48.436Z,1015.30
2019-03-25T15:11:41.340Z,1015.51
2019-03-25T15:12:41.359Z,1015.36
2019-03-25T15:14:34.256Z,1015.37
2019-03-25T15:15:34.261Z,1015.35
2019-03-25T15:17:27.161Z,1015.52
2019-03-25T15:18:27.171Z,1015.41
2019-03-25T15:20:20.623Z,1015.50
2019-03-25T15:21:20.576Z,1015.45
2019-03-25T15:23:13.523Z,1015.53
2019-03-25T15:24:13.499Z,1015.52
2019-03-25T15:26:08.009Z,1015.61
2019-03-25T15:27:06.396Z,1015.61
2019-03-25T15:28:59.308Z,1015.70
2019-03-25T15:29:59.307Z,1015.74
2019-03-25T15:31:52.219Z,1015.75
2019-03-25T15:32:52.223Z,1015.78
2019-03-25T15:34:45.125Z,1015.86
2019-03-25T15:35:45.129Z,1015.80
2019-03-25T15:37:38.102Z,1015.80
2019-03-25T15:38:38.104Z,1015.83
2019-03-25T15:40:31.080Z,1015.86
2019-03-25T15:41:31.015Z,1015.88
2019-03-25T15:43:24.911Z,1015.89
2019-03-25T15:44:24.927Z,1015.96
2019-03-25T15:46:17.832Z,1015.97
2019-03-25T15:47:17.857Z,1016.04
2019-03-25T15:49:10.744Z,1016.05
2019-03-25T15:50:10.749Z,1016.05
2019-03-25T15:52:03.654Z,1016.12
2019-03-25T15:53:03.660Z,1016.09
2019-03-25T15:54:56.578Z,1016.15
2019-03-25T15:55:56.577Z,1016.16
2019-03-25T15:57:49.474Z,1016.23
2019-03-25T15:58:49.485Z,1016.29
2019-03-25T16:00:47.627Z,1016.27
2019-03-25T16:01:42.399Z,1016.31
2019-03-25T16:03:35.838Z,1016.34
2019-03-25T16:04:35.806Z,1016.24
2019-03-25T16:06:28.708Z,1016.30
2019-03-25T16:07:28.717Z,1016.38
2019-03-25T16:09:22.127Z,1016.39
2019-03-25T16:10:22.137Z,1016.36
2019-03-25T16:12:15.029Z,1016.38
2019-03-25T16:13:15.131Z,1016.39
2019-03-25T16:15:07.948Z,1016.45
2019-03-25T16:16:07.949Z,1016.53
2019-03-25T16:18:00.877Z,1016.59
2019-03-25T16:19:00.906Z,1016.58
2019-03-25T16:20:53.767Z,1016.56
2019-03-25T16:21:53.770Z,1016.63
2019-03-25T16:23:46.677Z,1016.74
2019-03-25T16:24:46.677Z,1016.71
2019-03-25T16:26:39.613Z,1016.72
2019-03-25T16:27:39.596Z,1016.70
2019-03-25T16:29:32.523Z,1016.76
2019-03-25T16:30:32.535Z,1016.72
2019-03-25T16:32:25.448Z,1016.77
2019-03-25T16:33:25.444Z,1016.76
2019-03-25T16:35:18.349Z,1016.81
2019-03-25T16:36:18.348Z,1016.81
2019-03-25T16:38:11.248Z,1016.92
2019-03-25T16:39:11.261Z,1016.83
2019-03-25T16:41:04.173Z,1016.80
2019-03-25T16:42:04.170Z,1016.78
2019-03-25T16:43:57.104Z,1016.78
2019-03-25T16:44:57.106Z,1016.86
2019-03-25T16:46:50.009Z,1016.80
2019-03-25T16:47:50.012Z,1016.84
2019-03-25T16:49:42.944Z,1016.87
2019-03-25T16:50:42.927Z,1016.85
2019-03-25T16:52:35.898Z,1016.81
2019-03-25T16:53:35.857Z,1016.86
2019-03-25T16:55:28.769Z,1016.88
2019-03-25T16:56:29.063Z,1016.95
2019-03-25T16:58:21.663Z,1017.05
2019-03-25T16:59:21.676Z,1017.07
2019-03-25T17:01:14.582Z,1017.17
2019-03-25T17:02:14.584Z,1017.18
2019-03-25T17:04:07.543Z,1017.18
2019-03-25T17:05:07.527Z,1017.22
2019-03-25T17:07:00.428Z,1017.27
2019-03-25T17:08:00.434Z,1017.27
2019-03-25T17:09:53.339Z,1017.33
2019-03-25T17:10:53.339Z,1017.30
2019-03-25T17:12:46.242Z,1017.35
2019-03-25T17:13:46.251Z,1017.42
2019-03-25T17:15:39.215Z,1017.44
2019-03-25T17:16:39.187Z,1017.51
2019-03-25T17:18:32.072Z,1017.46
2019-03-25T17:19:32.085Z,1017.53
2019-03-25T17:21:24.990Z,1017.51
2019-03-25T17:22:24.995Z,1017.53
2019-03-25T17:24:17.901Z,1017.63
2019-03-25T17:25:17.928Z,1017.68
2019-03-25T17:27:10.861Z,1017.75